메인 페이지
METAR-TAF:

METAR-TAF

공항 :

샌디에이고 / Miramar, 캘리포니아, 미국

위도: 32-52-06N, 경도: 117-08-33W, 고도: 146m

현재 날씨관측

예보는 31분 전, 05:06시(UTC)에 발표되었습니다.
북서7kt
온도 14°C
습도 100%
기압 1011 hPa
시정: 9.7km
고도 1000ft 상공 구름 많음
고도 1500ft 상공 흐림
박무

METAR: KNKX 200506Z 32007KT 6SM BR BKN010 OVC015 14/14 A2986 RMK AO2 T01440139

시각: 22:37 (05:37 UTC)

예보

예보 대상 시간: 19일 21시부터 20일 21시까지 (UTC)
남서8kt
시정: 8000m
고도 1500ft 상공 구름 보통
연무
전환 중
20일 03시부터 20일 05시까지 (UTC)
시정: 8000m
고도 1800ft 상공 구름 많음
박무
20일 0930시부터 (UTC)
남서2kt
시정: 6000m
고도 1200ft 상공 흐림
박무,

TAF: KNKX 1921/2021 23008KT 8000 HZ SCT015 QNH2984INS BECMG 2003/2005 8000 BR BKN018 QNH2982INS FM200930 23002KT 6000 BR OVC012 QNH2980INS T23/1923Z T14/2013Z

4,000개 이상의 공항 관측 자료 및 예보 (METAR 및 TAF 보고).

지도상에서 검색 가능한 기상관측소가 노란 점과 빨간 점으로 표시되어 있습니다.

기상관측소 명을 보려면 표시 위로 마우스를 이동하세요.

날씨 관측과 예보를 보려면 클릭하세요.

지도 변경 : 확대하려면 엑스 표시가 있는 녹색 버튼, 축소하려면 빼기 표시가 있는 녹색 버튼, 다음 페이지의 지도를 보려면 녹색 화살표를 클릭하세요.


METAR-TAF: